Ana Sayfa
METAR-TAF:

METAR-TAF

Havaalanları :

Erzincan Havalimanı

Erzincan, Türkiye

Enlem: 39-44N, Boylam: 039-30E, yükseklik: 1156 m

Güncel hava durumu gözlemi

Rapor saat 03:50 UTC de 1 saat ve 6 dakika önce yapıldı.
Sakin rüzgar
Sıcaklık 18°C
Nem 59%
Basınç 1014 hPa
Görüş mesafesi 10 km veya daha fazla
1500 m altında bulut yok ve kümülonimbus yok

METAR: LTCD 150350Z 00000KT CAVOK 18/10 Q1014 NOSIG

Saat: 07:56 (04:56 UTC)

Tahmin

Rapor saat 01:40 UTC de 3 saat ve 16 dakika önce yapıldı.
Ayın 15'si saat 03 UTC'den ayın 15'si saat 12 UTC'ye kadar geçerli Tahmin
Rüzgar değişken yönden 2 kt
Görüş mesafesi 10 km veya daha fazla
1500 m altında bulut yok ve kümülonimbus yok

TAF: LTCD 150140Z 1503/1512 VRB02KT CAVOK

4.000'den fazla havaalanı için hava durumu gözlemleri ve tahminleri (METAR ve TAF raporları).

Kullanılabilir istasyonlar harita üzerinde sarı ve kırmızı noktalarla gösterilir.

İstasyonun adını görmek için fareyi noktanın üzerinde gezdirin.

Sonrasında hava gözlem ve tahminlerini görmek için tıklayın.

Haritayı değiştirmek için: yaklaştırmak için siyah artı işaretli yeşil düğmeye ve uzaklaştırmak için de eksi işaretli düğmeye hızla tıklayın; bitişik haritalar için yeşil okları kullanın.


METAR-TAF: